sensor_id;sensor_type;location;lat;lon;timestamp;pressure;altitude;pressure_sealevel;temperature;humidity
6096;BME280;25081;42.698;23.298;2023-05-25T00:01:19;95182.51;;;15.52;81.38
6096;BME280;25081;42.698;23.298;2023-05-25T00:03:30;95188.21;;;15.56;81.16
6096;BME280;25081;42.698;23.298;2023-05-25T00:05:40;95194.14;;;15.58;80.76
6096;BME280;25081;42.698;23.298;2023-05-25T00:07:51;95199.97;;;15.52;80.46
6096;BME280;25081;42.698;23.298;2023-05-25T00:10:02;95202.87;;;15.45;80.40
6096;BME280;25081;42.698;23.298;2023-05-25T00:12:13;95213.72;;;15.34;80.58
6096;BME280;25081;42.698;23.298;2023-05-25T00:14:23;95208.74;;;15.23;80.80
6096;BME280;25081;42.698;23.298;2023-05-25T00:16:33;95203.57;;;15.16;81.70
6096;BME280;25081;42.698;23.298;2023-05-25T00:18:45;95204.78;;;15.06;82.31
6096;BME280;25081;42.698;23.298;2023-05-25T00:20:56;95205.87;;;15.08;82.71
6096;BME280;25081;42.698;23.298;2023-05-25T00:23:06;95204.58;;;15.13;82.20
6096;BME280;25081;42.698;23.298;2023-05-25T00:25:17;95200.30;;;15.14;82.07
6096;BME280;25081;42.698;23.298;2023-05-25T00:27:28;95206.20;;;15.14;81.90
6096;BME280;25081;42.698;23.298;2023-05-25T00:29:38;95204.19;;;15.04;82.75
6096;BME280;25081;42.698;23.298;2023-05-25T00:31:49;95202.80;;;14.99;83.04
6096;BME280;25081;42.698;23.298;2023-05-25T00:34:00;95204.38;;;14.98;82.95
6096;BME280;25081;42.698;23.298;2023-05-25T00:36:10;95205.36;;;14.92;82.91
6096;BME280;25081;42.698;23.298;2023-05-25T00:38:21;95197.75;;;14.86;83.46
6096;BME280;25081;42.698;23.298;2023-05-25T00:40:31;95205.58;;;14.87;83.51
6096;BME280;25081;42.698;23.298;2023-05-25T00:42:42;95209.27;;;14.84;83.75
6096;BME280;25081;42.698;23.298;2023-05-25T00:44:52;95213.23;;;14.79;84.00
6096;BME280;25081;42.698;23.298;2023-05-25T00:47:03;95202.44;;;14.76;84.04
6096;BME280;25081;42.698;23.298;2023-05-25T00:49:14;95210.18;;;14.73;84.05
6096;BME280;25081;42.698;23.298;2023-05-25T00:51:25;95211.52;;;14.73;83.65
6096;BME280;25081;42.698;23.298;2023-05-25T00:53:35;95206.91;;;14.68;83.46
6096;BME280;25081;42.698;23.298;2023-05-25T00:55:48;95207.97;;;14.67;83.84
6096;BME280;25081;42.698;23.298;2023-05-25T00:57:57;95211.15;;;14.67;83.89
6096;BME280;25081;42.698;23.298;2023-05-25T01:00:09;95213.73;;;14.59;84.42
6096;BME280;25081;42.698;23.298;2023-05-25T01:02:20;95220.97;;;14.58;84.49
6096;BME280;25081;42.698;23.298;2023-05-25T01:04:31;95223.81;;;14.52;84.59
6096;BME280;25081;42.698;23.298;2023-05-25T01:06:43;95229.05;;;14.61;84.49
6096;BME280;25081;42.698;23.298;2023-05-25T01:08:53;95229.05;;;14.61;83.99
6096;BME280;25081;42.698;23.298;2023-05-25T01:11:03;95230.71;;;14.65;83.99
6096;BME280;25081;42.698;23.298;2023-05-25T01:13:14;95228.84;;;14.65;83.84
6096;BME280;25081;42.698;23.298;2023-05-25T01:15:24;95232.83;;;14.63;83.82
6096;BME280;25081;42.698;23.298;2023-05-25T01:17:35;95231.42;;;14.57;84.17
6096;BME280;25081;42.698;23.298;2023-05-25T01:19:46;95226.56;;;14.57;84.56
6096;BME280;25081;42.698;23.298;2023-05-25T01:22:00;95228.92;;;14.53;84.46
6096;BME280;25081;42.698;23.298;2023-05-25T01:24:11;95224.06;;;14.50;84.56
6096;BME280;25081;42.698;23.298;2023-05-25T01:26:21;95220.69;;;14.43;84.45
6096;BME280;25081;42.698;23.298;2023-05-25T01:28:33;95217.97;;;14.41;84.62
6096;BME280;25081;42.698;23.298;2023-05-25T01:30:43;95211.69;;;14.35;84.64
6096;BME280;25081;42.698;23.298;2023-05-25T01:32:53;95223.94;;;14.28;85.09
6096;BME280;25081;42.698;23.298;2023-05-25T01:35:04;95218.61;;;14.31;85.28
6096;BME280;25081;42.698;23.298;2023-05-25T01:37:15;95215.40;;;14.31;85.17
6096;BME280;25081;42.698;23.298;2023-05-25T01:39:26;95217.38;;;14.22;85.64
6096;BME280;25081;42.698;23.298;2023-05-25T01:41:36;95211.23;;;14.24;85.78
6096;BME280;25081;42.698;23.298;2023-05-25T01:43:47;95211.23;;;14.24;85.70
6096;BME280;25081;42.698;23.298;2023-05-25T01:46:11;95203.30;;;14.15;85.94
6096;BME280;25081;42.698;23.298;2023-05-25T01:48:09;95199.53;;;14.13;86.07
6096;BME280;25081;42.698;23.298;2023-05-25T01:50:22;95198.16;;;14.11;86.52
6096;BME280;25081;42.698;23.298;2023-05-25T01:52:33;95200.88;;;14.13;86.44
6096;BME280;25081;42.698;23.298;2023-05-25T01:54:44;95195.76;;;14.12;86.16
6096;BME280;25081;42.698;23.298;2023-05-25T01:56:54;95195.66;;;14.07;86.25
6096;BME280;25081;42.698;23.298;2023-05-25T01:59:04;95193.95;;;13.86;86.84
6096;BME280;25081;42.698;23.298;2023-05-25T02:01:15;95198.36;;;13.92;86.76
6096;BME280;25081;42.698;23.298;2023-05-25T02:03:25;95201.08;;;13.95;86.45
6096;BME280;25081;42.698;23.298;2023-05-25T02:05:36;95207.89;;;14.00;86.09
6096;BME280;25081;42.698;23.298;2023-05-25T02:07:47;95208.06;;;13.96;87.00
6096;BME280;25081;42.698;23.298;2023-05-25T02:09:57;95208.98;;;14.01;86.83
6096;BME280;25081;42.698;23.298;2023-05-25T02:12:08;95188.34;;;13.88;86.23
6096;BME280;25081;42.698;23.298;2023-05-25T02:14:19;95211.59;;;13.99;85.98
6096;BME280;25081;42.698;23.298;2023-05-25T02:16:29;95215.69;;;14.01;86.17
6096;BME280;25081;42.698;23.298;2023-05-25T02:18:40;95222.31;;;13.99;86.26
6096;BME280;25081;42.698;23.298;2023-05-25T02:20:50;95225.14;;;14.07;86.33
6096;BME280;25081;42.698;23.298;2023-05-25T02:23:01;95229.09;;;14.01;86.48
6096;BME280;25081;42.698;23.298;2023-05-25T02:25:11;95226.12;;;14.00;86.45
6096;BME280;25081;42.698;23.298;2023-05-25T02:27:22;95230.18;;;14.03;86.58
6096;BME280;25081;42.698;23.298;2023-05-25T02:29:32;95224.82;;;14.03;86.81
6096;BME280;25081;42.698;23.298;2023-05-25T02:31:43;95232.30;;;14.01;86.98
6096;BME280;25081;42.698;23.298;2023-05-25T02:33:54;95230.60;;;13.97;87.15
6096;BME280;25081;42.698;23.298;2023-05-25T02:36:05;95226.47;;;13.90;88.07
6096;BME280;25081;42.698;23.298;2023-05-25T02:38:15;95233.73;;;13.92;88.36
6096;BME280;25081;42.698;23.298;2023-05-25T02:40:26;95231.09;;;13.94;88.11
6096;BME280;25081;42.698;23.298;2023-05-25T02:42:36;95242.48;;;14.01;87.71
6096;BME280;25081;42.698;23.298;2023-05-25T02:44:46;95242.91;;;13.96;87.22
6096;BME280;25081;42.698;23.298;2023-05-25T02:46:57;95241.77;;;13.92;87.38
6096;BME280;25081;42.698;23.298;2023-05-25T02:49:07;95253.06;;;13.94;87.89
6096;BME280;25081;42.698;23.298;2023-05-25T02:51:18;95250.63;;;13.92;87.79
6096;BME280;25081;42.698;23.298;2023-05-25T02:53:29;95249.66;;;13.84;87.83
6096;BME280;25081;42.698;23.298;2023-05-25T02:55:39;95247.75;;;13.82;88.34
6096;BME280;25081;42.698;23.298;2023-05-25T02:57:50;95251.57;;;13.86;87.99
6096;BME280;25081;42.698;23.298;2023-05-25T03:00:00;95256.80;;;13.93;87.67
6096;BME280;25081;42.698;23.298;2023-05-25T03:02:11;95252.81;;;13.95;87.62
6096;BME280;25081;42.698;23.298;2023-05-25T03:04:21;95260.30;;;13.93;87.39
6096;BME280;25081;42.698;23.298;2023-05-25T03:06:32;95258.27;;;13.86;87.66
6096;BME280;25081;42.698;23.298;2023-05-25T03:08:42;95261.56;;;13.77;88.05
6096;BME280;25081;42.698;23.298;2023-05-25T03:10:53;95267.37;;;13.71;88.43
6096;BME280;25081;42.698;23.298;2023-05-25T03:13:03;95262.86;;;13.74;88.98
6096;BME280;25081;42.698;23.298;2023-05-25T03:15:14;95267.49;;;13.79;88.96
6096;BME280;25081;42.698;23.298;2023-05-25T03:17:24;95260.78;;;13.90;88.45
6096;BME280;25081;42.698;23.298;2023-05-25T03:19:35;95265.69;;;13.96;88.00
6096;BME280;25081;42.698;23.298;2023-05-25T03:21:45;95268.84;;;14.07;87.82
6096;BME280;25081;42.698;23.298;2023-05-25T03:23:56;95268.47;;;14.15;87.54
6096;BME280;25081;42.698;23.298;2023-05-25T03:26:06;95262.44;;;14.22;86.97
6096;BME280;25081;42.698;23.298;2023-05-25T03:28:17;95268.12;;;14.26;86.51
6096;BME280;25081;42.698;23.298;2023-05-25T03:30:28;95268.51;;;14.32;86.53
6096;BME280;25081;42.698;23.298;2023-05-25T03:32:38;95265.16;;;14.25;86.21
6096;BME280;25081;42.698;23.298;2023-05-25T03:34:49;95278.99;;;14.33;86.62
6096;BME280;25081;42.698;23.298;2023-05-25T03:37:00;95279.09;;;14.39;85.89
6096;BME280;25081;42.698;23.298;2023-05-25T03:39:10;95274.95;;;14.62;84.41
6096;BME280;25081;42.698;23.298;2023-05-25T03:41:21;95271.34;;;14.87;83.51
6096;BME280;25081;42.698;23.298;2023-05-25T03:43:31;95266.58;;;14.92;82.04
6096;BME280;25081;42.698;23.298;2023-05-25T03:45:42;95272.62;;;14.85;82.28
6096;BME280;25081;42.698;23.298;2023-05-25T03:47:53;95266.44;;;15.18;81.96
6096;BME280;25081;42.698;23.298;2023-05-25T03:50:03;95274.45;;;15.54;79.82
6096;BME280;25081;42.698;23.298;2023-05-25T03:52:14;95274.45;;;15.54;79.82
6096;BME280;25081;42.698;23.298;2023-05-25T03:54:25;95274.51;;;15.59;78.31
6096;BME280;25081;42.698;23.298;2023-05-25T03:56:35;95274.51;;;15.59;78.31
6096;BME280;25081;42.698;23.298;2023-05-25T03:58:46;95280.00;;;15.48;78.91
6096;BME280;25081;42.698;23.298;2023-05-25T04:00:56;95282.69;;;15.48;78.45
6096;BME280;25081;42.698;23.298;2023-05-25T04:03:07;95279.72;;;15.27;79.03
6096;BME280;25081;42.698;23.298;2023-05-25T04:05:17;95284.45;;;15.20;80.14
6096;BME280;25081;42.698;23.298;2023-05-25T04:07:28;95293.66;;;15.07;80.69
6096;BME280;25081;42.698;23.298;2023-05-25T04:09:39;95293.66;;;15.07;80.69
6096;BME280;25081;42.698;23.298;2023-05-25T04:11:49;95290.17;;;15.07;81.08
6096;BME280;25081;42.698;23.298;2023-05-25T04:14:00;95289.36;;;15.06;81.32
6096;BME280;25081;42.698;23.298;2023-05-25T04:16:10;95297.86;;;15.37;80.58
6096;BME280;25081;42.698;23.298;2023-05-25T04:18:21;95290.77;;;15.50;79.96
6096;BME280;25081;42.698;23.298;2023-05-25T04:20:31;95294.38;;;15.75;79.22
6096;BME280;25081;42.698;23.298;2023-05-25T04:22:42;95302.15;;;15.96;77.74
6096;BME280;25081;42.698;23.298;2023-05-25T04:24:52;95296.08;;;16.06;78.30
6096;BME280;25081;42.698;23.298;2023-05-25T04:27:04;95296.08;;;16.06;78.30
6096;BME280;25081;42.698;23.298;2023-05-25T04:29:14;95299.89;;;16.34;77.11
6096;BME280;25081;42.698;23.298;2023-05-25T04:31:25;95291.52;;;17.19;72.68
6096;BME280;25081;42.698;23.298;2023-05-25T04:33:35;95338.66;;;17.19;72.68
6096;BME280;25081;42.698;23.298;2023-05-25T04:35:46;95292.67;;;16.96;72.87
6096;BME280;25081;42.698;23.298;2023-05-25T04:37:56;95308.03;;;17.33;73.08
6096;BME280;25081;42.698;23.298;2023-05-25T04:40:08;95308.03;;;17.33;73.08
6096;BME280;25081;42.698;23.298;2023-05-25T04:42:19;95307.63;;;17.56;71.84
6096;BME280;25081;42.698;23.298;2023-05-25T04:44:30;95312.39;;;17.84;70.49
6096;BME280;25081;42.698;23.298;2023-05-25T04:46:40;95311.98;;;18.12;69.35
6096;BME280;25081;42.698;23.298;2023-05-25T04:48:51;95309.58;;;18.21;68.44
6096;BME280;25081;42.698;23.298;2023-05-25T04:51:01;95311.33;;;18.63;67.56
6096;BME280;25081;42.698;23.298;2023-05-25T04:53:12;95309.20;;;18.80;66.28
6096;BME280;25081;42.698;23.298;2023-05-25T04:55:22;95302.72;;;18.81;66.06
6096;BME280;25081;42.698;23.298;2023-05-25T04:57:33;95309.21;;;19.10;64.51
6096;BME280;25081;42.698;23.298;2023-05-25T04:59:44;95305.98;;;19.08;64.99
6096;BME280;25081;42.698;23.298;2023-05-25T05:01:54;95300.83;;;19.27;64.09
6096;BME280;25081;42.698;23.298;2023-05-25T05:04:05;95296.80;;;19.22;64.24
6096;BME280;25081;42.698;23.298;2023-05-25T05:06:16;95296.49;;;19.62;62.67
6096;BME280;25081;42.698;23.298;2023-05-25T05:08:27;95297.26;;;19.75;61.93
6096;BME280;25081;42.698;23.298;2023-05-25T05:10:37;95292.77;;;20.20;61.22
6096;BME280;25081;42.698;23.298;2023-05-25T05:12:48;95291.34;;;20.33;60.11
6096;BME280;25081;42.698;23.298;2023-05-25T05:14:58;95294.23;;;20.56;59.62
6096;BME280;25081;42.698;23.298;2023-05-25T05:17:09;95291.66;;;21.12;58.07
6096;BME280;25081;42.698;23.298;2023-05-25T05:19:19;95291.37;;;21.98;56.44
6096;BME280;25081;42.698;23.298;2023-05-25T05:21:30;95289.72;;;22.02;55.15
6096;BME280;25081;42.698;23.298;2023-05-25T05:23:42;95293.27;;;22.24;55.13
6096;BME280;25081;42.698;23.298;2023-05-25T05:25:52;95290.20;;;21.22;57.08
6096;BME280;25081;42.698;23.298;2023-05-25T05:28:03;95298.34;;;21.27;57.22
6096;BME280;25081;42.698;23.298;2023-05-25T05:30:14;95300.68;;;21.05;58.23
6096;BME280;25081;42.698;23.298;2023-05-25T05:32:25;95300.02;;;21.18;57.69
6096;BME280;25081;42.698;23.298;2023-05-25T05:34:35;95299.60;;;22.17;55.79
6096;BME280;25081;42.698;23.298;2023-05-25T05:36:46;95304.00;;;23.12;52.99
6096;BME280;25081;42.698;23.298;2023-05-25T05:38:56;95303.58;;;22.86;52.26
6096;BME280;25081;42.698;23.298;2023-05-25T05:41:07;95309.41;;;23.31;52.49
6096;BME280;25081;42.698;23.298;2023-05-25T05:43:18;95305.12;;;24.34;48.54
6096;BME280;25081;42.698;23.298;2023-05-25T05:45:28;95300.21;;;24.72;48.20
6096;BME280;25081;42.698;23.298;2023-05-25T05:47:39;95307.41;;;25.60;45.78
6096;BME280;25081;42.698;23.298;2023-05-25T05:49:49;95303.17;;;25.76;45.11
6096;BME280;25081;42.698;23.298;2023-05-25T05:52:00;95299.77;;;26.02;44.24
6096;BME280;25081;42.698;23.298;2023-05-25T05:54:10;95307.72;;;26.40;43.59
6096;BME280;25081;42.698;23.298;2023-05-25T05:56:21;95305.14;;;26.15;43.66
6096;BME280;25081;42.698;23.298;2023-05-25T05:58:31;95306.56;;;25.39;45.03
6096;BME280;25081;42.698;23.298;2023-05-25T06:00:42;95307.54;;;24.85;46.42
6096;BME280;25081;42.698;23.298;2023-05-25T06:02:52;95310.00;;;25.76;44.73
6096;BME280;25081;42.698;23.298;2023-05-25T06:05:03;95313.34;;;25.84;45.00
6096;BME280;25081;42.698;23.298;2023-05-25T06:07:14;95309.28;;;25.93;44.09
6096;BME280;25081;42.698;23.298;2023-05-25T06:09:24;95311.31;;;25.67;44.29
6096;BME280;25081;42.698;23.298;2023-05-25T06:11:35;95304.73;;;27.22;42.07
6096;BME280;25081;42.698;23.298;2023-05-25T06:13:46;95307.09;;;27.67;40.26
6096;BME280;25081;42.698;23.298;2023-05-25T06:15:57;95303.41;;;27.11;42.22
6096;BME280;25081;42.698;23.298;2023-05-25T06:18:07;95310.67;;;27.91;39.95
6096;BME280;25081;42.698;23.298;2023-05-25T06:20:18;95305.91;;;26.93;42.20
6096;BME280;25081;42.698;23.298;2023-05-25T06:22:28;95313.64;;;24.43;46.84
6096;BME280;25081;42.698;23.298;2023-05-25T06:24:39;95317.96;;;23.57;49.98
6096;BME280;25081;42.698;23.298;2023-05-25T06:26:50;95321.13;;;24.49;47.69
6096;BME280;25081;42.698;23.298;2023-05-25T06:29:00;95316.09;;;24.81;47.06
6096;BME280;25081;42.698;23.298;2023-05-25T06:31:11;95324.13;;;23.92;49.21
6096;BME280;25081;42.698;23.298;2023-05-25T06:33:21;95310.20;;;25.24;46.02
6096;BME280;25081;42.698;23.298;2023-05-25T06:35:32;95310.88;;;26.34;43.60
6096;BME280;25081;42.698;23.298;2023-05-25T06:37:42;95308.80;;;27.31;41.85
6096;BME280;25081;42.698;23.298;2023-05-25T06:39:53;95309.44;;;28.41;39.46
6096;BME280;25081;42.698;23.298;2023-05-25T06:42:04;95301.66;;;29.50;37.41
6096;BME280;25081;42.698;23.298;2023-05-25T06:44:15;95307.14;;;29.77;36.80
6096;BME280;25081;42.698;23.298;2023-05-25T06:46:25;95308.42;;;29.32;37.27
6096;BME280;25081;42.698;23.298;2023-05-25T06:48:37;95312.20;;;29.33;37.85
6096;BME280;25081;42.698;23.298;2023-05-25T06:50:46;95313.69;;;29.91;36.49
6096;BME280;25081;42.698;23.298;2023-05-25T06:52:57;95311.27;;;30.23;36.18
6096;BME280;25081;42.698;23.298;2023-05-25T06:55:08;95314.03;;;29.50;37.17
6096;BME280;25081;42.698;23.298;2023-05-25T06:57:19;95291.13;;;29.52;37.17
6096;BME280;25081;42.698;23.298;2023-05-25T06:59:30;95313.77;;;28.87;38.65
6096;BME280;25081;42.698;23.298;2023-05-25T07:01:40;95321.94;;;28.89;39.52
6096;BME280;25081;42.698;23.298;2023-05-25T07:03:51;95313.19;;;29.02;38.83
6096;BME280;25081;42.698;23.298;2023-05-25T07:06:01;95314.59;;;28.28;39.94
6096;BME280;25081;42.698;23.298;2023-05-25T07:08:12;95315.70;;;29.01;39.35
6096;BME280;25081;42.698;23.298;2023-05-25T07:10:22;95308.33;;;29.95;37.45
6096;BME280;25081;42.698;23.298;2023-05-25T07:12:33;95307.77;;;28.78;39.99
6096;BME280;25081;42.698;23.298;2023-05-25T07:14:44;95300.34;;;29.42;38.94
6096;BME280;25081;42.698;23.298;2023-05-25T07:16:55;95300.38;;;29.75;38.49
6096;BME280;25081;42.698;23.298;2023-05-25T07:19:05;95283.78;;;31.18;35.50
6096;BME280;25081;42.698;23.298;2023-05-25T07:21:16;95291.89;;;30.37;37.29
6096;BME280;25081;42.698;23.298;2023-05-25T07:23:26;95285.81;;;30.26;37.66
6096;BME280;25081;42.698;23.298;2023-05-25T07:27:55;95299.60;;;29.86;38.09
6096;BME280;25081;42.698;23.298;2023-05-25T07:30:08;95298.54;;;29.46;39.09
6096;BME280;25081;42.698;23.298;2023-05-25T07:32:19;95311.10;;;28.48;39.96
6096;BME280;25081;42.698;23.298;2023-05-25T07:34:29;95310.94;;;28.45;40.43
6096;BME280;25081;42.698;23.298;2023-05-25T07:36:40;95306.31;;;28.96;40.09
6096;BME280;25081;42.698;23.298;2023-05-25T07:38:50;95302.38;;;29.53;39.08
6096;BME280;25081;42.698;23.298;2023-05-25T07:41:01;95312.61;;;29.71;38.57
6096;BME280;25081;42.698;23.298;2023-05-25T07:43:11;95312.98;;;30.27;38.01
6096;BME280;25081;42.698;23.298;2023-05-25T07:45:22;95321.57;;;29.74;38.51
6096;BME280;25081;42.698;23.298;2023-05-25T07:47:32;95323.89;;;28.65;40.36
6096;BME280;25081;42.698;23.298;2023-05-25T07:49:43;95319.84;;;28.42;39.97
6096;BME280;25081;42.698;23.298;2023-05-25T07:51:53;95310.62;;;27.50;40.87
6096;BME280;25081;42.698;23.298;2023-05-25T07:54:04;95313.42;;;26.70;42.79
6096;BME280;25081;42.698;23.298;2023-05-25T07:56:14;95318.75;;;25.87;45.57
6096;BME280;25081;42.698;23.298;2023-05-25T07:58:25;95321.30;;;25.05;45.78
6096;BME280;25081;42.698;23.298;2023-05-25T08:00:36;95329.19;;;24.68;46.69
6096;BME280;25081;42.698;23.298;2023-05-25T08:02:46;95329.44;;;24.44;45.85
6096;BME280;25081;42.698;23.298;2023-05-25T08:04:57;95335.20;;;23.98;47.53
6096;BME280;25081;42.698;23.298;2023-05-25T08:07:07;95346.47;;;23.62;47.91
6096;BME280;25081;42.698;23.298;2023-05-25T08:09:18;95345.52;;;23.36;49.45
6096;BME280;25081;42.698;23.298;2023-05-25T08:11:28;95345.09;;;23.29;48.98
6096;BME280;25081;42.698;23.298;2023-05-25T08:13:39;95351.95;;;23.08;48.91
6096;BME280;25081;42.698;23.298;2023-05-25T08:15:49;95368.64;;;22.13;51.83
6096;BME280;25081;42.698;23.298;2023-05-25T08:18:00;95374.28;;;21.27;54.34
6096;BME280;25081;42.698;23.298;2023-05-25T08:20:12;95384.67;;;20.66;55.27
6096;BME280;25081;42.698;23.298;2023-05-25T08:22:22;95388.16;;;19.81;57.12
6096;BME280;25081;42.698;23.298;2023-05-25T08:24:33;95392.23;;;19.66;58.07
6096;BME280;25081;42.698;23.298;2023-05-25T08:26:43;95388.42;;;19.39;59.21
6096;BME280;25081;42.698;23.298;2023-05-25T08:28:54;95395.44;;;19.04;60.90
6096;BME280;25081;42.698;23.298;2023-05-25T08:31:05;95397.29;;;18.91;63.31
6096;BME280;25081;42.698;23.298;2023-05-25T08:33:16;95401.59;;;18.77;66.45
6096;BME280;25081;42.698;23.298;2023-05-25T08:35:26;95404.47;;;18.55;70.17
6096;BME280;25081;42.698;23.298;2023-05-25T08:37:37;95456.86;;;18.59;72.24
6096;BME280;25081;42.698;23.298;2023-05-25T08:39:47;95400.84;;;18.24;73.22
6096;BME280;25081;42.698;23.298;2023-05-25T08:41:58;95403.06;;;17.87;75.35
6096;BME280;25081;42.698;23.298;2023-05-25T08:44:08;95403.06;;;17.87;75.35
6096;BME280;25081;42.698;23.298;2023-05-25T08:46:23;95406.57;;;16.92;81.63
6096;BME280;25081;42.698;23.298;2023-05-25T08:48:35;95406.57;;;16.92;81.63
6096;BME280;25081;42.698;23.298;2023-05-25T08:50:42;95400.77;;;17.05;83.06
6096;BME280;25081;42.698;23.298;2023-05-25T08:52:53;95399.16;;;17.06;80.57
6096;BME280;25081;42.698;23.298;2023-05-25T08:55:05;95401.98;;;16.90;81.87
6096;BME280;25081;42.698;23.298;2023-05-25T08:57:16;95401.98;;;16.90;81.87
6096;BME280;25081;42.698;23.298;2023-05-25T08:59:33;95403.72;;;16.54;79.93
6096;BME280;25081;42.698;23.298;2023-05-25T09:01:43;95414.63;;;16.89;80.48
6096;BME280;25081;42.698;23.298;2023-05-25T09:03:52;95430.02;;;16.94;79.68
6096;BME280;25081;42.698;23.298;2023-05-25T09:06:03;95430.02;;;16.94;79.68
6096;BME280;25081;42.698;23.298;2023-05-25T09:08:13;95434.98;;;17.36;78.66
6096;BME280;25081;42.698;23.298;2023-05-25T09:10:24;95429.31;;;18.05;75.83
6096;BME280;25081;42.698;23.298;2023-05-25T09:12:35;95436.26;;;18.43;74.20
6096;BME280;25081;42.698;23.298;2023-05-25T09:14:45;95436.26;;;18.43;74.20
6096;BME280;25081;42.698;23.298;2023-05-25T09:16:56;95445.73;;;19.26;72.19
6096;BME280;25081;42.698;23.298;2023-05-25T09:19:06;95445.73;;;19.26;72.19
6096;BME280;25081;42.698;23.298;2023-05-25T09:21:17;95436.56;;;19.47;71.29
6096;BME280;25081;42.698;23.298;2023-05-25T09:23:27;95468.58;;;18.75;72.48
6096;BME280;25081;42.698;23.298;2023-05-25T09:25:38;95426.30;;;18.46;76.16
6096;BME280;25081;42.698;23.298;2023-05-25T09:27:49;95410.11;;;18.46;76.16
6096;BME280;25081;42.698;23.298;2023-05-25T09:29:59;95420.67;;;18.55;77.00
6096;BME280;25081;42.698;23.298;2023-05-25T09:32:10;95434.48;;;18.64;77.51
6096;BME280;25081;42.698;23.298;2023-05-25T09:34:20;95434.00;;;18.77;77.04
6096;BME280;25081;42.698;23.298;2023-05-25T09:36:31;95425.39;;;18.85;76.66
6096;BME280;25081;42.698;23.298;2023-05-25T09:38:42;95416.30;;;17.94;80.47
6096;BME280;25081;42.698;23.298;2023-05-25T09:40:52;95416.30;;;17.94;80.47
6096;BME280;25081;42.698;23.298;2023-05-25T09:43:03;95419.30;;;17.63;81.74
6096;BME280;25081;42.698;23.298;2023-05-25T09:45:14;95309.72;;;16.72;82.43
6096;BME280;25081;42.698;23.298;2023-05-25T09:47:24;95420.29;;;17.49;81.69
6096;BME280;25081;42.698;23.298;2023-05-25T09:49:35;95415.42;;;17.81;81.74
6096;BME280;25081;42.698;23.298;2023-05-25T09:51:45;95421.41;;;18.35;81.82
6096;BME280;25081;42.698;23.298;2023-05-25T09:53:55;95420.73;;;18.68;80.61
6096;BME280;25081;42.698;23.298;2023-05-25T09:56:07;95405.39;;;18.88;78.99
6096;BME280;25081;42.698;23.298;2023-05-25T09:58:17;95412.47;;;19.02;78.16
6096;BME280;25081;42.698;23.298;2023-05-25T10:00:28;95407.05;;;19.10;78.01
6096;BME280;25081;42.698;23.298;2023-05-25T10:02:38;95411.70;;;19.40;77.40
6096;BME280;25081;42.698;23.298;2023-05-25T10:04:49;95407.55;;;20.24;73.82
6096;BME280;25081;42.698;23.298;2023-05-25T10:07:00;95406.28;;;20.78;70.88
6096;BME280;25081;42.698;23.298;2023-05-25T10:09:10;95399.59;;;21.10;68.92
6096;BME280;25081;42.698;23.298;2023-05-25T10:11:21;95289.48;;;20.28;71.05
6096;BME280;25081;42.698;23.298;2023-05-25T10:13:32;95394.31;;;21.31;67.98
6096;BME280;25081;42.698;23.298;2023-05-25T10:15:43;95393.16;;;21.74;65.59
6096;BME280;25081;42.698;23.298;2023-05-25T10:17:53;95387.47;;;21.99;64.12
6096;BME280;25081;42.698;23.298;2023-05-25T10:20:06;95381.76;;;21.75;65.28
6096;BME280;25081;42.698;23.298;2023-05-25T10:22:18;95375.00;;;21.69;67.39
6096;BME280;25081;42.698;23.298;2023-05-25T10:24:29;95376.36;;;21.72;66.50
6096;BME280;25081;42.698;23.298;2023-05-25T10:26:41;95377.48;;;21.32;64.71
6096;BME280;25081;42.698;23.298;2023-05-25T10:28:51;95376.45;;;21.25;64.23
6096;BME280;25081;42.698;23.298;2023-05-25T10:31:01;95370.91;;;21.01;65.34
6096;BME280;25081;42.698;23.298;2023-05-25T10:33:12;95370.69;;;20.93;65.53
6096;BME280;25081;42.698;23.298;2023-05-25T10:35:23;95369.19;;;21.15;68.79
6096;BME280;25081;42.698;23.298;2023-05-25T10:37:33;95348.88;;;21.10;67.91
6096;BME280;25081;42.698;23.298;2023-05-25T10:39:44;95362.30;;;21.65;65.08
6096;BME280;25081;42.698;23.298;2023-05-25T10:41:54;95348.34;;;21.48;62.82
6096;BME280;25081;42.698;23.298;2023-05-25T10:46:23;95342.38;;;20.70;66.92
6096;BME280;25081;42.698;23.298;2023-05-25T10:48:37;95344.89;;;20.53;69.98
6096;BME280;25081;42.698;23.298;2023-05-25T10:50:50;95339.26;;;20.47;70.70
6096;BME280;25081;42.698;23.298;2023-05-25T10:53:02;95333.58;;;20.46;70.90
6096;BME280;25081;42.698;23.298;2023-05-25T10:55:12;95324.48;;;20.12;70.53
6096;BME280;25081;42.698;23.298;2023-05-25T10:57:22;95326.12;;;20.05;69.51
6096;BME280;25081;42.698;23.298;2023-05-25T10:59:33;95324.02;;;19.89;69.56
6096;BME280;25081;42.698;23.298;2023-05-25T11:01:50;95319.07;;;20.07;71.16
6096;BME280;25081;42.698;23.298;2023-05-25T11:04:14;95318.82;;;20.03;69.18
6096;BME280;25081;42.698;23.298;2023-05-25T11:09:24;95311.39;;;20.32;71.08
6096;BME280;25081;42.698;23.298;2023-05-25T11:12:05;95311.30;;;20.54;67.17
6096;BME280;25081;42.698;23.298;2023-05-25T11:14:21;95313.47;;;20.57;66.93
6096;BME280;25081;42.698;23.298;2023-05-25T11:16:32;95316.47;;;20.95;64.45
6096;BME280;25081;42.698;23.298;2023-05-25T11:18:44;95318.14;;;21.28;64.24
6096;BME280;25081;42.698;23.298;2023-05-25T11:21:10;95316.61;;;21.14;65.40
6096;BME280;25081;42.698;23.298;2023-05-25T11:23:24;95316.62;;;21.09;65.40
6096;BME280;25081;42.698;23.298;2023-05-25T11:25:39;95316.75;;;21.33;63.55
6096;BME280;25081;42.698;23.298;2023-05-25T11:27:49;95318.50;;;21.48;62.36
6096;BME280;25081;42.698;23.298;2023-05-25T11:29:59;95319.86;;;21.48;62.75
6096;BME280;25081;42.698;23.298;2023-05-25T11:32:13;95317.11;;;21.53;62.74
6096;BME280;25081;42.698;23.298;2023-05-25T11:34:23;95324.54;;;21.39;62.69
6096;BME280;25081;42.698;23.298;2023-05-25T11:36:34;95320.53;;;21.34;62.27
6096;BME280;25081;42.698;23.298;2023-05-25T11:38:45;95322.41;;;20.97;63.04
6096;BME280;25081;42.698;23.298;2023-05-25T11:40:55;95324.53;;;21.03;62.97